Terminal Aerodrome Forecast
Issued by NWS

Current Version | Previous Version | Text Only | Print | Product List | Glossary On
Versions: 1 2 3 4 5 6 7 8 9 10 11 12 13
000
FTUS44 KCRP 280529
TAFALI
TAF
KALI 280529Z 2806/2906 VRB03KT P6SM SCT020
     FM280800 VRB03KT P6SM BKN020
      TEMPO 2811/2813 5SM BR
     FM281500 02006KT P6SM VCSH SCT025 BKN030
     FM281800 05008KT P6SM VCTS BKN035CB
     FM282200 09012G18KT P6SM SCT040 BKN250
     FM290200 11005KT P6SM SCT025=

USA.gov is the U.S. government's official web portal to all federal, state and local government web resources and services.